Aviation Digital Data Service (ADDS)

Output produced by METARs form (0823 UTC 19 April 2019)
found at http://www.aviationweather.gov/metar/data/
 
METAR text: EGPH 190750Z 07008KT 8000 SCT006 08/08 Q1031
Conditions at: EGPH (EDINBURGH AIRPOR, GB) observed 0750 UTC 19 April 2019
Temperature: 8.0°C (46°F)
Dewpoint: 8.0°C (46°F) [RH = 100%]
Pressure (altimeter): 30.44 inches Hg (1031.0 mb)
Winds: from the ENE (70 degrees) at 9 MPH (8 knots; 4.1 m/s)
Visibility: 5 miles ( 8 km)
Ceiling: at least 12,000 feet AGL
Clouds: scattered clouds at 600 feet AGL
Weather: no significant weather observed at this time

METAR text: EGPH 190720Z 06006KT 7000 FEW005 08/08 Q1031
Conditions at: EGPH (EDINBURGH AIRPOR, GB) observed 0720 UTC 19 April 2019
Temperature: 8.0°C (46°F)
Dewpoint: 8.0°C (46°F) [RH = 100%]
Pressure (altimeter): 30.44 inches Hg (1031.0 mb)
Winds: from the ENE (60 degrees) at 7 MPH (6 knots; 3.1 m/s)
Visibility: 4 miles ( 7 km)
Ceiling: at least 12,000 feet AGL
Clouds: few clouds at 500 feet AGL
Weather: no significant weather observed at this time

METAR text: EGPH 190650Z 06005KT 7000 FEW005 08/08 Q1031
Conditions at: EGPH (EDINBURGH AIRPOR, GB) observed 0650 UTC 19 April 2019
Temperature: 8.0°C (46°F)
Dewpoint: 8.0°C (46°F) [RH = 100%]
Pressure (altimeter): 30.44 inches Hg (1031.0 mb)
Winds: from the ENE (60 degrees) at 6 MPH (5 knots; 2.6 m/s)
Visibility: 4 miles ( 7 km)
Ceiling: at least 12,000 feet AGL
Clouds: few clouds at 500 feet AGL
Weather: no significant weather observed at this time

METAR text: EGPH 190620Z 06004KT 6000 FEW005 06/06 Q1031
Conditions at: EGPH (EDINBURGH AIRPOR, GB) observed 0620 UTC 19 April 2019
Temperature: 6.0°C (43°F)
Dewpoint: 6.0°C (43°F) [RH = 100%]
Pressure (altimeter): 30.44 inches Hg (1031.0 mb)
Winds: from the ENE (60 degrees) at 5 MPH (4 knots; 2.1 m/s)
Visibility: 4 miles ( 6 km)
Ceiling: at least 12,000 feet AGL
Clouds: few clouds at 500 feet AGL
Weather: no significant weather observed at this time

METAR text: EGPH 190550Z 09003KT 5000 BR FEW005 06/06 Q1031
Conditions at: EGPH (EDINBURGH AIRPOR, GB) observed 0550 UTC 19 April 2019
Temperature: 6.0°C (43°F)
Dewpoint: 6.0°C (43°F) [RH = 100%]
Pressure (altimeter): 30.44 inches Hg (1031.0 mb)
Winds: from the E (90 degrees) at 3 MPH (3 knots; 1.5 m/s)
Visibility: 3 miles ( 5 km)
Ceiling: at least 12,000 feet AGL
Clouds: few clouds at 500 feet AGL
Weather: BR  (mist)

METAR text: EGPH 190520Z 08005KT 4500 BR FEW004 06/06 Q1030
Conditions at: EGPH (EDINBURGH AIRPOR, GB) observed 0520 UTC 19 April 2019
Temperature: 6.0°C (43°F)
Dewpoint: 6.0°C (43°F) [RH = 100%]
Pressure (altimeter): 30.41 inches Hg (1030.0 mb)
Winds: from the E (80 degrees) at 6 MPH (5 knots; 2.6 m/s)
Visibility: 2.80 miles (4.51 km)
Ceiling: at least 12,000 feet AGL
Clouds: few clouds at 400 feet AGL
Weather: BR  (mist)

METAR text: EGPH 190450Z 07006KT 4900 BR FEW004 06/06 Q1030
Conditions at: EGPH (EDINBURGH AIRPOR, GB) observed 0450 UTC 19 April 2019
Temperature: 6.0°C (43°F)
Dewpoint: 6.0°C (43°F) [RH = 100%]
Pressure (altimeter): 30.41 inches Hg (1030.0 mb)
Winds: from the ENE (70 degrees) at 7 MPH (6 knots; 3.1 m/s)
Visibility: 3 miles ( 5 km)
Ceiling: at least 12,000 feet AGL
Clouds: few clouds at 400 feet AGL
Weather: BR  (mist)

METAR text: EGPH 190420Z 06006KT 4300 BR FEW004 07/07 Q1030
Conditions at: EGPH (EDINBURGH AIRPOR, GB) observed 0420 UTC 19 April 2019
Temperature: 7.0°C (45°F)
Dewpoint: 7.0°C (45°F) [RH = 100%]
Pressure (altimeter): 30.41 inches Hg (1030.0 mb)
Winds: from the ENE (60 degrees) at 7 MPH (6 knots; 3.1 m/s)
Visibility: 2.67 miles (4.30 km)
Ceiling: at least 12,000 feet AGL
Clouds: few clouds at 400 feet AGL
Weather: BR  (mist)

METAR text: EGPH 190350Z 06006KT 5000 BR NSC 07/07 Q1030
Conditions at: EGPH (EDINBURGH AIRPOR, GB) observed 0350 UTC 19 April 2019
Temperature: 7.0°C (45°F)
Dewpoint: 7.0°C (45°F) [RH = 100%]
Pressure (altimeter): 30.41 inches Hg (1030.0 mb)
Winds: from the ENE (60 degrees) at 7 MPH (6 knots; 3.1 m/s)
Visibility: 3 miles ( 5 km)
Ceiling: at least 12,000 feet AGL
Clouds: sky clear below 12,000 feet AGL
Weather: BR  (mist)

METAR text: EGPH 190320Z 04004KT 5000 BR SCT003 07/07 Q1030
Conditions at: EGPH (EDINBURGH AIRPOR, GB) observed 0320 UTC 19 April 2019
Temperature: 7.0°C (45°F)
Dewpoint: 7.0°C (45°F) [RH = 100%]
Pressure (altimeter): 30.41 inches Hg (1030.0 mb)
Winds: from the NE (40 degrees) at 5 MPH (4 knots; 2.1 m/s)
Visibility: 3 miles ( 5 km)
Ceiling: at least 12,000 feet AGL
Clouds: scattered clouds at 300 feet AGL
Weather: BR  (mist)

METAR text: EGPH 190250Z 05005KT 3800 BR BKN003 07/07 Q1030
Conditions at: EGPH (EDINBURGH AIRPOR, GB) observed 0250 UTC 19 April 2019
Temperature: 7.0°C (45°F)
Dewpoint: 7.0°C (45°F) [RH = 100%]
Pressure (altimeter): 30.41 inches Hg (1030.0 mb)
Winds: from the NE (50 degrees) at 6 MPH (5 knots; 2.6 m/s)
Visibility: 2.36 miles (3.80 km)
Ceiling: 300 feet AGL
Clouds: broken clouds at 300 feet AGL
Weather: BR  (mist)

METAR text: EGPH 190220Z 07007KT 3900 BR OVC003 07/07 Q1030
Conditions at: EGPH (EDINBURGH AIRPOR, GB) observed 0220 UTC 19 April 2019
Temperature: 7.0°C (45°F)
Dewpoint: 7.0°C (45°F) [RH = 100%]
Pressure (altimeter): 30.41 inches Hg (1030.0 mb)
Winds: from the ENE (70 degrees) at 8 MPH (7 knots; 3.6 m/s)
Visibility: 2.42 miles (3.89 km)
Ceiling: 300 feet AGL
Clouds: overcast cloud deck at 300 feet AGL
Weather: BR  (mist)

METAR text: EGPH 190150Z 06006KT 4400 BR OVC003 07/07 Q1030
Conditions at: EGPH (EDINBURGH AIRPOR, GB) observed 0150 UTC 19 April 2019
Temperature: 7.0°C (45°F)
Dewpoint: 7.0°C (45°F) [RH = 100%]
Pressure (altimeter): 30.41 inches Hg (1030.0 mb)
Winds: from the ENE (60 degrees) at 7 MPH (6 knots; 3.1 m/s)
Visibility: 2.73 miles (4.39 km)
Ceiling: 300 feet AGL
Clouds: overcast cloud deck at 300 feet AGL
Weather: BR  (mist)

METAR text: EGPH 190120Z 06007KT 5000 BR BKN003 07/07 Q1030
Conditions at: EGPH (EDINBURGH AIRPOR, GB) observed 0120 UTC 19 April 2019
Temperature: 7.0°C (45°F)
Dewpoint: 7.0°C (45°F) [RH = 100%]
Pressure (altimeter): 30.41 inches Hg (1030.0 mb)
Winds: from the ENE (60 degrees) at 8 MPH (7 knots; 3.6 m/s)
Visibility: 3 miles ( 5 km)
Ceiling: 300 feet AGL
Clouds: broken clouds at 300 feet AGL
Weather: BR  (mist)

METAR text: EGPH 190050Z 04004KT 360V070 4700 BR BKN003 07/07 Q1030
Conditions at: EGPH (EDINBURGH AIRPOR, GB) observed 0050 UTC 19 April 2019
Temperature: 7.0°C (45°F)
Dewpoint: 7.0°C (45°F) [RH = 100%]
Pressure (altimeter): 30.41 inches Hg (1030.0 mb)
Winds: from the NE (40 degrees) at 5 MPH (4 knots; 2.1 m/s)
Visibility: 2.92 miles (4.70 km)
Ceiling: 300 feet AGL
Clouds: broken clouds at 300 feet AGL
Weather: BR  (mist)

METAR text: EGPH 190020Z 06009KT 5000 BR OVC003 07/07 Q1030
Conditions at: EGPH (EDINBURGH AIRPOR, GB) observed 0020 UTC 19 April 2019
Temperature: 7.0°C (45°F)
Dewpoint: 7.0°C (45°F) [RH = 100%]
Pressure (altimeter): 30.41 inches Hg (1030.0 mb)
Winds: from the ENE (60 degrees) at 10 MPH (9 knots; 4.6 m/s)
Visibility: 3 miles ( 5 km)
Ceiling: 300 feet AGL
Clouds: overcast cloud deck at 300 feet AGL
Weather: BR  (mist)

METAR text: EGPH 182350Z 06010KT 5000 BR OVC003 07/07 Q1030
Conditions at: EGPH (EDINBURGH AIRPOR, GB) observed 2350 UTC 18 April 2019
Temperature: 7.0°C (45°F)
Dewpoint: 7.0°C (45°F) [RH = 100%]
Pressure (altimeter): 30.41 inches Hg (1030.0 mb)
Winds: from the ENE (60 degrees) at 12 MPH (10 knots; 5.1 m/s)
Visibility: 3 miles ( 5 km)
Ceiling: 300 feet AGL
Clouds: overcast cloud deck at 300 feet AGL
Weather: BR  (mist)

METAR text: EGPH 182320Z 05009KT 5000 BR BKN003 07/07 Q1030
Conditions at: EGPH (EDINBURGH AIRPOR, GB) observed 2320 UTC 18 April 2019
Temperature: 7.0°C (45°F)
Dewpoint: 7.0°C (45°F) [RH = 100%]
Pressure (altimeter): 30.41 inches Hg (1030.0 mb)
Winds: from the NE (50 degrees) at 10 MPH (9 knots; 4.6 m/s)
Visibility: 3 miles ( 5 km)
Ceiling: 300 feet AGL
Clouds: broken clouds at 300 feet AGL
Weather: BR  (mist)

METAR text: EGPH 182250Z 05009KT 6000 SCT004 07/07 Q1030
Conditions at: EGPH (EDINBURGH AIRPOR, GB) observed 2250 UTC 18 April 2019
Temperature: 7.0°C (45°F)
Dewpoint: 7.0°C (45°F) [RH = 100%]
Pressure (altimeter): 30.41 inches Hg (1030.0 mb)
Winds: from the NE (50 degrees) at 10 MPH (9 knots; 4.6 m/s)
Visibility: 4 miles ( 6 km)
Ceiling: at least 12,000 feet AGL
Clouds: scattered clouds at 400 feet AGL
Weather: no significant weather observed at this time

METAR text: EGPH 182220Z 06010KT 6000 SCT004 07/07 Q1030
Conditions at: EGPH (EDINBURGH AIRPOR, GB) observed 2220 UTC 18 April 2019
Temperature: 7.0°C (45°F)
Dewpoint: 7.0°C (45°F) [RH = 100%]
Pressure (altimeter): 30.41 inches Hg (1030.0 mb)
Winds: from the ENE (60 degrees) at 12 MPH (10 knots; 5.1 m/s)
Visibility: 4 miles ( 6 km)
Ceiling: at least 12,000 feet AGL
Clouds: scattered clouds at 400 feet AGL
Weather: no significant weather observed at this time

METAR text: EGPH 182150Z 05010KT 6000 SCT004 07/07 Q1030
Conditions at: EGPH (EDINBURGH AIRPOR, GB) observed 2150 UTC 18 April 2019
Temperature: 7.0°C (45°F)
Dewpoint: 7.0°C (45°F) [RH = 100%]
Pressure (altimeter): 30.41 inches Hg (1030.0 mb)
Winds: from the NE (50 degrees) at 12 MPH (10 knots; 5.1 m/s)
Visibility: 4 miles ( 6 km)
Ceiling: at least 12,000 feet AGL
Clouds: scattered clouds at 400 feet AGL
Weather: no significant weather observed at this time

METAR text: EGPH 182120Z 05008KT 6000 FEW006 07/07 Q1029
Conditions at: EGPH (EDINBURGH AIRPOR, GB) observed 2120 UTC 18 April 2019
Temperature: 7.0°C (45°F)
Dewpoint: 7.0°C (45°F) [RH = 100%]
Pressure (altimeter): 30.38 inches Hg (1029.0 mb)
Winds: from the NE (50 degrees) at 9 MPH (8 knots; 4.1 m/s)
Visibility: 4 miles ( 6 km)
Ceiling: at least 12,000 feet AGL
Clouds: few clouds at 600 feet AGL
Weather: no significant weather observed at this time

METAR text: EGPH 182050Z 05009KT 7000 NSC 07/07 Q1029
Conditions at: EGPH (EDINBURGH AIRPOR, GB) observed 2050 UTC 18 April 2019
Temperature: 7.0°C (45°F)
Dewpoint: 7.0°C (45°F) [RH = 100%]
Pressure (altimeter): 30.38 inches Hg (1029.0 mb)
Winds: from the NE (50 degrees) at 10 MPH (9 knots; 4.6 m/s)
Visibility: 4 miles ( 7 km)
Ceiling: at least 12,000 feet AGL
Clouds: sky clear below 12,000 feet AGL
Weather: no significant weather observed at this time

METAR text: EGPH 182020Z 06009KT 7000 NSC 08/07 Q1029
Conditions at: EGPH (EDINBURGH AIRPOR, GB) observed 2020 UTC 18 April 2019
Temperature: 8.0°C (46°F)
Dewpoint: 7.0°C (45°F) [RH = 93%]
Pressure (altimeter): 30.38 inches Hg (1029.0 mb)
Winds: from the ENE (60 degrees) at 10 MPH (9 knots; 4.6 m/s)
Visibility: 4 miles ( 7 km)
Ceiling: at least 12,000 feet AGL
Clouds: sky clear below 12,000 feet AGL
Weather: no significant weather observed at this time

METAR text: EGPH 181950Z 06007KT 7000 NSC 08/07 Q1029
Conditions at: EGPH (EDINBURGH AIRPOR, GB) observed 1950 UTC 18 April 2019
Temperature: 8.0°C (46°F)
Dewpoint: 7.0°C (45°F) [RH = 93%]
Pressure (altimeter): 30.38 inches Hg (1029.0 mb)
Winds: from the ENE (60 degrees) at 8 MPH (7 knots; 3.6 m/s)
Visibility: 4 miles ( 7 km)
Ceiling: at least 12,000 feet AGL
Clouds: sky clear below 12,000 feet AGL
Weather: no significant weather observed at this time

METAR text: EGPH 181920Z 07007KT 7000 FEW010 08/07 Q1029
Conditions at: EGPH (EDINBURGH AIRPOR, GB) observed 1920 UTC 18 April 2019
Temperature: 8.0°C (46°F)
Dewpoint: 7.0°C (45°F) [RH = 93%]
Pressure (altimeter): 30.38 inches Hg (1029.0 mb)
Winds: from the ENE (70 degrees) at 8 MPH (7 knots; 3.6 m/s)
Visibility: 4 miles ( 7 km)
Ceiling: at least 12,000 feet AGL
Clouds: few clouds at 1000 feet AGL
Weather: no significant weather observed at this time

METAR text: EGPH 181850Z 04005KT 340V090 7000 FEW010 08/07 Q1029
Conditions at: EGPH (EDINBURGH AIRPOR, GB) observed 1850 UTC 18 April 2019
Temperature: 8.0°C (46°F)
Dewpoint: 7.0°C (45°F) [RH = 93%]
Pressure (altimeter): 30.38 inches Hg (1029.0 mb)
Winds: from the NE (40 degrees) at 6 MPH (5 knots; 2.6 m/s)
Visibility: 4 miles ( 7 km)
Ceiling: at least 12,000 feet AGL
Clouds: few clouds at 1000 feet AGL
Weather: no significant weather observed at this time

METAR text: EGPH 181820Z 04008KT 360V060 8000 NSC 09/07 Q1028
Conditions at: EGPH (EDINBURGH AIRPOR, GB) observed 1820 UTC 18 April 2019
Temperature: 9.0°C (48°F)
Dewpoint: 7.0°C (45°F) [RH = 87%]
Pressure (altimeter): 30.35 inches Hg (1028.0 mb)
Winds: from the NE (40 degrees) at 9 MPH (8 knots; 4.1 m/s)
Visibility: 5 miles ( 8 km)
Ceiling: at least 12,000 feet AGL
Clouds: sky clear below 12,000 feet AGL
Weather: no significant weather observed at this time

METAR text: EGPH 181750Z 04008KT 9000 NSC 09/08 Q1028
Conditions at: EGPH (EDINBURGH AIRPOR, GB) observed 1750 UTC 18 April 2019
Temperature: 9.0°C (48°F)
Dewpoint: 8.0°C (46°F) [RH = 93%]
Pressure (altimeter): 30.35 inches Hg (1028.0 mb)
Winds: from the NE (40 degrees) at 9 MPH (8 knots; 4.1 m/s)
Visibility: 6 miles ( 9 km)
Ceiling: at least 12,000 feet AGL
Clouds: sky clear below 12,000 feet AGL
Weather: no significant weather observed at this time

METAR text: EGPH 181720Z 05011KT 8000 NSC 09/08 Q1028
Conditions at: EGPH (EDINBURGH AIRPOR, GB) observed 1720 UTC 18 April 2019
Temperature: 9.0°C (48°F)
Dewpoint: 8.0°C (46°F) [RH = 93%]
Pressure (altimeter): 30.35 inches Hg (1028.0 mb)
Winds: from the NE (50 degrees) at 13 MPH (11 knots; 5.7 m/s)
Visibility: 5 miles ( 8 km)
Ceiling: at least 12,000 feet AGL
Clouds: sky clear below 12,000 feet AGL
Weather: no significant weather observed at this time

METAR text: EGPH 181650Z 04012KT 8000 NSC 09/08 Q1028
Conditions at: EGPH (EDINBURGH AIRPOR, GB) observed 1650 UTC 18 April 2019
Temperature: 9.0°C (48°F)
Dewpoint: 8.0°C (46°F) [RH = 93%]
Pressure (altimeter): 30.35 inches Hg (1028.0 mb)
Winds: from the NE (40 degrees) at 14 MPH (12 knots; 6.2 m/s)
Visibility: 5 miles ( 8 km)
Ceiling: at least 12,000 feet AGL
Clouds: sky clear below 12,000 feet AGL
Weather: no significant weather observed at this time

METAR text: EGPH 181620Z 04013KT 9000 NSC 10/08 Q1028
Conditions at: EGPH (EDINBURGH AIRPOR, GB) observed 1620 UTC 18 April 2019
Temperature: 10.0°C (50°F)
Dewpoint: 8.0°C (46°F) [RH = 87%]
Pressure (altimeter): 30.35 inches Hg (1028.0 mb)
Winds: from the NE (40 degrees) at 15 MPH (13 knots; 6.7 m/s)
Visibility: 6 miles ( 9 km)
Ceiling: at least 12,000 feet AGL
Clouds: sky clear below 12,000 feet AGL
Weather: no significant weather observed at this time

METAR text: EGPH 181550Z 05013KT 8000 NSC 10/08 Q1028
Conditions at: EGPH (EDINBURGH AIRPOR, GB) observed 1550 UTC 18 April 2019
Temperature: 10.0°C (50°F)
Dewpoint: 8.0°C (46°F) [RH = 87%]
Pressure (altimeter): 30.35 inches Hg (1028.0 mb)
Winds: from the NE (50 degrees) at 15 MPH (13 knots; 6.7 m/s)
Visibility: 5 miles ( 8 km)
Ceiling: at least 12,000 feet AGL
Clouds: sky clear below 12,000 feet AGL
Weather: no significant weather observed at this time

METAR text: EGPH 181520Z 04012KT 8000 NSC 10/08 Q1028
Conditions at: EGPH (EDINBURGH AIRPOR, GB) observed 1520 UTC 18 April 2019
Temperature: 10.0°C (50°F)
Dewpoint: 8.0°C (46°F) [RH = 87%]
Pressure (altimeter): 30.35 inches Hg (1028.0 mb)
Winds: from the NE (40 degrees) at 14 MPH (12 knots; 6.2 m/s)
Visibility: 5 miles ( 8 km)
Ceiling: at least 12,000 feet AGL
Clouds: sky clear below 12,000 feet AGL
Weather: no significant weather observed at this time

METAR text: EGPH 181450Z 05012KT 9000 FEW026 10/08 Q1028
Conditions at: EGPH (EDINBURGH AIRPOR, GB) observed 1450 UTC 18 April 2019
Temperature: 10.0°C (50°F)
Dewpoint: 8.0°C (46°F) [RH = 87%]
Pressure (altimeter): 30.35 inches Hg (1028.0 mb)
Winds: from the NE (50 degrees) at 14 MPH (12 knots; 6.2 m/s)
Visibility: 6 miles ( 9 km)
Ceiling: at least 12,000 feet AGL
Clouds: few clouds at 2600 feet AGL
Weather: no significant weather observed at this time

METAR text: EGPH 181420Z 05014KT 9000 NSC 11/08 Q1028
Conditions at: EGPH (EDINBURGH AIRPOR, GB) observed 1420 UTC 18 April 2019
Temperature: 11.0°C (52°F)
Dewpoint: 8.0°C (46°F) [RH = 82%]
Pressure (altimeter): 30.35 inches Hg (1028.0 mb)
Winds: from the NE (50 degrees) at 16 MPH (14 knots; 7.2 m/s)
Visibility: 6 miles ( 9 km)
Ceiling: at least 12,000 feet AGL
Clouds: sky clear below 12,000 feet AGL
Weather: no significant weather observed at this time

METAR text: EGPH 181350Z 05011KT 9000 FEW012 10/08 Q1028
Conditions at: EGPH (EDINBURGH AIRPOR, GB) observed 1350 UTC 18 April 2019
Temperature: 10.0°C (50°F)
Dewpoint: 8.0°C (46°F) [RH = 87%]
Pressure (altimeter): 30.35 inches Hg (1028.0 mb)
Winds: from the NE (50 degrees) at 13 MPH (11 knots; 5.7 m/s)
Visibility: 6 miles ( 9 km)
Ceiling: at least 12,000 feet AGL
Clouds: few clouds at 1200 feet AGL
Weather: no significant weather observed at this time

METAR text: EGPH 181320Z 05012KT 9000 FEW012 11/08 Q1028
Conditions at: EGPH (EDINBURGH AIRPOR, GB) observed 1320 UTC 18 April 2019
Temperature: 11.0°C (52°F)
Dewpoint: 8.0°C (46°F) [RH = 82%]
Pressure (altimeter): 30.35 inches Hg (1028.0 mb)
Winds: from the NE (50 degrees) at 14 MPH (12 knots; 6.2 m/s)
Visibility: 6 miles ( 9 km)
Ceiling: at least 12,000 feet AGL
Clouds: few clouds at 1200 feet AGL
Weather: no significant weather observed at this time

METAR text: EGPH 181250Z 06013KT CAVOK 11/08 Q1028
Conditions at: EGPH (EDINBURGH AIRPOR, GB) observed 1250 UTC 18 April 2019
Temperature: 11.0°C (52°F)
Dewpoint: 8.0°C (46°F) [RH = 82%]
Pressure (altimeter): 30.35 inches Hg (1028.0 mb)
Winds: from the ENE (60 degrees) at 15 MPH (13 knots; 6.7 m/s)
Visibility: 6 or more miles (10+ km)
Ceiling: ceiling and visibility are OK
Clouds: unknown
Weather: no significant weather observed at this time

METAR text: EGPH 181220Z 05012KT CAVOK 11/08 Q1028
Conditions at: EGPH (EDINBURGH AIRPOR, GB) observed 1220 UTC 18 April 2019
Temperature: 11.0°C (52°F)
Dewpoint: 8.0°C (46°F) [RH = 82%]
Pressure (altimeter): 30.35 inches Hg (1028.0 mb)
Winds: from the NE (50 degrees) at 14 MPH (12 knots; 6.2 m/s)
Visibility: 6 or more miles (10+ km)
Ceiling: ceiling and visibility are OK
Clouds: unknown
Weather: no significant weather observed at this time

METAR text: EGPH 181150Z 05010KT 9999 FEW014 11/08 Q1028
Conditions at: EGPH (EDINBURGH AIRPOR, GB) observed 1150 UTC 18 April 2019
Temperature: 11.0°C (52°F)
Dewpoint: 8.0°C (46°F) [RH = 82%]
Pressure (altimeter): 30.35 inches Hg (1028.0 mb)
Winds: from the NE (50 degrees) at 12 MPH (10 knots; 5.1 m/s)
Visibility: 6 or more miles (10+ km)
Ceiling: at least 12,000 feet AGL
Clouds: few clouds at 1400 feet AGL
Weather: no significant weather observed at this time

METAR text: EGPH 181120Z 05011KT 9000 FEW012 11/08 Q1028
Conditions at: EGPH (EDINBURGH AIRPOR, GB) observed 1120 UTC 18 April 2019
Temperature: 11.0°C (52°F)
Dewpoint: 8.0°C (46°F) [RH = 82%]
Pressure (altimeter): 30.35 inches Hg (1028.0 mb)
Winds: from the NE (50 degrees) at 13 MPH (11 knots; 5.7 m/s)
Visibility: 6 miles ( 9 km)
Ceiling: at least 12,000 feet AGL
Clouds: few clouds at 1200 feet AGL
Weather: no significant weather observed at this time

METAR text: EGPH 181050Z 07013KT 9999 FEW012 11/08 Q1028
Conditions at: EGPH (EDINBURGH AIRPOR, GB) observed 1050 UTC 18 April 2019
Temperature: 11.0°C (52°F)
Dewpoint: 8.0°C (46°F) [RH = 82%]
Pressure (altimeter): 30.35 inches Hg (1028.0 mb)
Winds: from the ENE (70 degrees) at 15 MPH (13 knots; 6.7 m/s)
Visibility: 6 or more miles (10+ km)
Ceiling: at least 12,000 feet AGL
Clouds: few clouds at 1200 feet AGL
Weather: no significant weather observed at this time

METAR text: EGPH 181020Z 07010KT 8000 SCT012 11/08 Q1029
Conditions at: EGPH (EDINBURGH AIRPOR, GB) observed 1020 UTC 18 April 2019
Temperature: 11.0°C (52°F)
Dewpoint: 8.0°C (46°F) [RH = 82%]
Pressure (altimeter): 30.38 inches Hg (1029.0 mb)
Winds: from the ENE (70 degrees) at 12 MPH (10 knots; 5.1 m/s)
Visibility: 5 miles ( 8 km)
Ceiling: at least 12,000 feet AGL
Clouds: scattered clouds at 1200 feet AGL
Weather: no significant weather observed at this time

METAR text: EGPH 180950Z 06009KT 7000 BKN008 09/07 Q1029
Conditions at: EGPH (EDINBURGH AIRPOR, GB) observed 0950 UTC 18 April 2019
Temperature: 9.0°C (48°F)
Dewpoint: 7.0°C (45°F) [RH = 87%]
Pressure (altimeter): 30.38 inches Hg (1029.0 mb)
Winds: from the ENE (60 degrees) at 10 MPH (9 knots; 4.6 m/s)
Visibility: 4 miles ( 7 km)
Ceiling: 800 feet AGL
Clouds: broken clouds at 800 feet AGL
Weather: no significant weather observed at this time

METAR text: EGPH 180920Z 07012KT 6000 BKN009 08/07 Q1029
Conditions at: EGPH (EDINBURGH AIRPOR, GB) observed 0920 UTC 18 April 2019
Temperature: 8.0°C (46°F)
Dewpoint: 7.0°C (45°F) [RH = 93%]
Pressure (altimeter): 30.38 inches Hg (1029.0 mb)
Winds: from the ENE (70 degrees) at 14 MPH (12 knots; 6.2 m/s)
Visibility: 4 miles ( 6 km)
Ceiling: 900 feet AGL
Clouds: broken clouds at 900 feet AGL
Weather: no significant weather observed at this time

METAR text: EGPH 180850Z 07009KT 5000 HZ OVC008 08/07 Q1029
Conditions at: EGPH (EDINBURGH AIRPOR, GB) observed 0850 UTC 18 April 2019
Temperature: 8.0°C (46°F)
Dewpoint: 7.0°C (45°F) [RH = 93%]
Pressure (altimeter): 30.38 inches Hg (1029.0 mb)
Winds: from the ENE (70 degrees) at 10 MPH (9 knots; 4.6 m/s)
Visibility: 3 miles ( 5 km)
Ceiling: 800 feet AGL
Clouds: overcast cloud deck at 800 feet AGL
Weather: HZ  (haze)

METAR text: EGPH 180820Z 08008KT 4700 BR OVC008 07/07 Q1029
Conditions at: EGPH (EDINBURGH AIRPOR, GB) observed 0820 UTC 18 April 2019
Temperature: 7.0°C (45°F)
Dewpoint: 7.0°C (45°F) [RH = 100%]
Pressure (altimeter): 30.38 inches Hg (1029.0 mb)
Winds: from the E (80 degrees) at 9 MPH (8 knots; 4.1 m/s)
Visibility: 2.92 miles (4.70 km)
Ceiling: 800 feet AGL
Clouds: overcast cloud deck at 800 feet AGL
Weather: BR  (mist)

METAR text: EGPH 180750Z 08009KT 4600 BR OVC007 07/07 Q1029
Conditions at: EGPH (EDINBURGH AIRPOR, GB) observed 0750 UTC 18 April 2019
Temperature: 7.0°C (45°F)
Dewpoint: 7.0°C (45°F) [RH = 100%]
Pressure (altimeter): 30.38 inches Hg (1029.0 mb)
Winds: from the E (80 degrees) at 10 MPH (9 knots; 4.6 m/s)
Visibility: 2.86 miles (4.60 km)
Ceiling: 700 feet AGL
Clouds: overcast cloud deck at 700 feet AGL
Weather: BR  (mist)

METAR text: EGPH 180720Z 06007KT 4000 BR OVC007 07/07 Q1028
Conditions at: EGPH (EDINBURGH AIRPOR, GB) observed 0720 UTC 18 April 2019
Temperature: 7.0°C (45°F)
Dewpoint: 7.0°C (45°F) [RH = 100%]
Pressure (altimeter): 30.35 inches Hg (1028.0 mb)
Winds: from the ENE (60 degrees) at 8 MPH (7 knots; 3.6 m/s)
Visibility: 2.49 miles (4.01 km)
Ceiling: 700 feet AGL
Clouds: overcast cloud deck at 700 feet AGL
Weather: BR  (mist)

METAR text: EGPH 180650Z 07008KT 4400 BR BKN007 07/07 Q1028
Conditions at: EGPH (EDINBURGH AIRPOR, GB) observed 0650 UTC 18 April 2019
Temperature: 7.0°C (45°F)
Dewpoint: 7.0°C (45°F) [RH = 100%]
Pressure (altimeter): 30.35 inches Hg (1028.0 mb)
Winds: from the ENE (70 degrees) at 9 MPH (8 knots; 4.1 m/s)
Visibility: 2.73 miles (4.39 km)
Ceiling: 700 feet AGL
Clouds: broken clouds at 700 feet AGL
Weather: BR  (mist)

METAR text: EGPH 180620Z 07006KT 3500 BR OVC007 07/07 Q1028
Conditions at: EGPH (EDINBURGH AIRPOR, GB) observed 0620 UTC 18 April 2019
Temperature: 7.0°C (45°F)
Dewpoint: 7.0°C (45°F) [RH = 100%]
Pressure (altimeter): 30.35 inches Hg (1028.0 mb)
Winds: from the ENE (70 degrees) at 7 MPH (6 knots; 3.1 m/s)
Visibility: 2.17 miles (3.49 km)
Ceiling: 700 feet AGL
Clouds: overcast cloud deck at 700 feet AGL
Weather: BR  (mist)

METAR text: EGPH 180550Z 08008KT 1400 R06/P1500 BR OVC001 07/07 Q1028
Conditions at: EGPH (EDINBURGH AIRPOR, GB) observed 0550 UTC 18 April 2019
Temperature: 7.0°C (45°F)
Dewpoint: 7.0°C (45°F) [RH = 100%]
Pressure (altimeter): 30.35 inches Hg (1028.0 mb)
Winds: from the E (80 degrees) at 9 MPH (8 knots; 4.1 m/s)
Visibility: 0.87 miles (1.40 km)
Ceiling: 100 feet AGL
Clouds: overcast cloud deck at 100 feet AGL
Weather: BR  (mist)

METAR text: EGPH 180520Z 08006KT 0550 R06/1000 FG VV/// 07/07 Q1028
Conditions at: EGPH (EDINBURGH AIRPOR, GB) observed 0520 UTC 18 April 2019
Temperature: 7.0°C (45°F)
Dewpoint: 7.0°C (45°F) [RH = 100%]
Pressure (altimeter): 30.35 inches Hg (1028.0 mb)
Winds: from the E (80 degrees) at 7 MPH (6 knots; 3.1 m/s)
Visibility: 0.34 miles (0.55 km)
Ceiling: indefinite ceiling with vertical visibility of 0 feet AGL
Clouds: obscured sky
Weather: FG  (fog)

METAR text: EGPH 180450Z 07006KT 0450 R06/0800 FG VV/// 07/07 Q1027
Conditions at: EGPH (EDINBURGH AIRPOR, GB) observed 0450 UTC 18 April 2019
Temperature: 7.0°C (45°F)
Dewpoint: 7.0°C (45°F) [RH = 100%]
Pressure (altimeter): 30.32 inches Hg (1027.0 mb)
Winds: from the ENE (70 degrees) at 7 MPH (6 knots; 3.1 m/s)
Visibility: 0.28 miles (0.45 km)
Ceiling: indefinite ceiling with vertical visibility of 0 feet AGL
Clouds: obscured sky
Weather: FG  (fog)

METAR text: EGPH 180420Z 07008KT 0600 R06/1200 FG OVC001 07/07 Q1027
Conditions at: EGPH (EDINBURGH AIRPOR, GB) observed 0420 UTC 18 April 2019
Temperature: 7.0°C (45°F)
Dewpoint: 7.0°C (45°F) [RH = 100%]
Pressure (altimeter): 30.32 inches Hg (1027.0 mb)
Winds: from the ENE (70 degrees) at 9 MPH (8 knots; 4.1 m/s)
Visibility: 0.37 miles (0.60 km)
Ceiling: 100 feet AGL
Clouds: overcast cloud deck at 100 feet AGL
Weather: FG  (fog)

METAR text: EGPH 180350Z 07006KT 1300 BR OVC002 07/07 Q1027
Conditions at: EGPH (EDINBURGH AIRPOR, GB) observed 0350 UTC 18 April 2019
Temperature: 7.0°C (45°F)
Dewpoint: 7.0°C (45°F) [RH = 100%]
Pressure (altimeter): 30.32 inches Hg (1027.0 mb)
Winds: from the ENE (70 degrees) at 7 MPH (6 knots; 3.1 m/s)
Visibility: 0.81 miles (1.30 km)
Ceiling: 200 feet AGL
Clouds: overcast cloud deck at 200 feet AGL
Weather: BR  (mist)

METAR text: EGPH 180320Z 07005KT 2000 BR OVC002 06/06 Q1027
Conditions at: EGPH (EDINBURGH AIRPOR, GB) observed 0320 UTC 18 April 2019
Temperature: 6.0°C (43°F)
Dewpoint: 6.0°C (43°F) [RH = 100%]
Pressure (altimeter): 30.32 inches Hg (1027.0 mb)
Winds: from the ENE (70 degrees) at 6 MPH (5 knots; 2.6 m/s)
Visibility: 1.24 miles (2.00 km)
Ceiling: 200 feet AGL
Clouds: overcast cloud deck at 200 feet AGL
Weather: BR  (mist)

METAR text: EGPH 180250Z 09007KT 2400 BR OVC002 06/06 Q1027
Conditions at: EGPH (EDINBURGH AIRPOR, GB) observed 0250 UTC 18 April 2019
Temperature: 6.0°C (43°F)
Dewpoint: 6.0°C (43°F) [RH = 100%]
Pressure (altimeter): 30.32 inches Hg (1027.0 mb)
Winds: from the E (90 degrees) at 8 MPH (7 knots; 3.6 m/s)
Visibility: 1.49 miles (2.40 km)
Ceiling: 200 feet AGL
Clouds: overcast cloud deck at 200 feet AGL
Weather: BR  (mist)

METAR text: EGPH 180220Z 08008KT 2400 BR OVC003 06/06 Q1027
Conditions at: EGPH (EDINBURGH AIRPOR, GB) observed 0220 UTC 18 April 2019
Temperature: 6.0°C (43°F)
Dewpoint: 6.0°C (43°F) [RH = 100%]
Pressure (altimeter): 30.32 inches Hg (1027.0 mb)
Winds: from the E (80 degrees) at 9 MPH (8 knots; 4.1 m/s)
Visibility: 1.49 miles (2.40 km)
Ceiling: 300 feet AGL
Clouds: overcast cloud deck at 300 feet AGL
Weather: BR  (mist)

METAR text: EGPH 180150Z 07008KT 040V100 3300 BR OVC003 06/06 Q1027
Conditions at: EGPH (EDINBURGH AIRPOR, GB) observed 0150 UTC 18 April 2019
Temperature: 6.0°C (43°F)
Dewpoint: 6.0°C (43°F) [RH = 100%]
Pressure (altimeter): 30.32 inches Hg (1027.0 mb)
Winds: from the ENE (70 degrees) at 9 MPH (8 knots; 4.1 m/s)
Visibility: 2.05 miles (3.30 km)
Ceiling: 300 feet AGL
Clouds: overcast cloud deck at 300 feet AGL
Weather: BR  (mist)

METAR text: EGPH 180120Z 08008KT 3700 BR OVC003 06/06 Q1027
Conditions at: EGPH (EDINBURGH AIRPOR, GB) observed 0120 UTC 18 April 2019
Temperature: 6.0°C (43°F)
Dewpoint: 6.0°C (43°F) [RH = 100%]
Pressure (altimeter): 30.32 inches Hg (1027.0 mb)
Winds: from the E (80 degrees) at 9 MPH (8 knots; 4.1 m/s)
Visibility: 2.30 miles (3.70 km)
Ceiling: 300 feet AGL
Clouds: overcast cloud deck at 300 feet AGL
Weather: BR  (mist)

METAR text: EGPH 180050Z 07010KT 5000 BR OVC003 07/06 Q1027
Conditions at: EGPH (EDINBURGH AIRPOR, GB) observed 0050 UTC 18 April 2019
Temperature: 7.0°C (45°F)
Dewpoint: 6.0°C (43°F) [RH = 93%]
Pressure (altimeter): 30.32 inches Hg (1027.0 mb)
Winds: from the ENE (70 degrees) at 12 MPH (10 knots; 5.1 m/s)
Visibility: 3 miles ( 5 km)
Ceiling: 300 feet AGL
Clouds: overcast cloud deck at 300 feet AGL
Weather: BR  (mist)

METAR text: EGPH 180020Z 08008KT 6000 OVC005 07/07 Q1027
Conditions at: EGPH (EDINBURGH AIRPOR, GB) observed 0020 UTC 18 April 2019
Temperature: 7.0°C (45°F)
Dewpoint: 7.0°C (45°F) [RH = 100%]
Pressure (altimeter): 30.32 inches Hg (1027.0 mb)
Winds: from the E (80 degrees) at 9 MPH (8 knots; 4.1 m/s)
Visibility: 4 miles ( 6 km)
Ceiling: 500 feet AGL
Clouds: overcast cloud deck at 500 feet AGL
Weather: no significant weather observed at this time

METAR text: EGPH 172350Z 08009KT 6000 OVC005 07/07 Q1027
Conditions at: EGPH (EDINBURGH AIRPOR, GB) observed 2350 UTC 17 April 2019
Temperature: 7.0°C (45°F)
Dewpoint: 7.0°C (45°F) [RH = 100%]
Pressure (altimeter): 30.32 inches Hg (1027.0 mb)
Winds: from the E (80 degrees) at 10 MPH (9 knots; 4.6 m/s)
Visibility: 4 miles ( 6 km)
Ceiling: 500 feet AGL
Clouds: overcast cloud deck at 500 feet AGL
Weather: no significant weather observed at this time

METAR text: EGPH 172320Z 08010KT 6000 OVC004 07/07 Q1026
Conditions at: EGPH (EDINBURGH AIRPOR, GB) observed 2320 UTC 17 April 2019
Temperature: 7.0°C (45°F)
Dewpoint: 7.0°C (45°F) [RH = 100%]
Pressure (altimeter): 30.30 inches Hg (1026.0 mb)
Winds: from the E (80 degrees) at 12 MPH (10 knots; 5.1 m/s)
Visibility: 4 miles ( 6 km)
Ceiling: 400 feet AGL
Clouds: overcast cloud deck at 400 feet AGL
Weather: no significant weather observed at this time

METAR text: EGPH 172250Z 07011KT 6000 OVC003 07/07 Q1026
Conditions at: EGPH (EDINBURGH AIRPOR, GB) observed 2250 UTC 17 April 2019
Temperature: 7.0°C (45°F)
Dewpoint: 7.0°C (45°F) [RH = 100%]
Pressure (altimeter): 30.30 inches Hg (1026.0 mb)
Winds: from the ENE (70 degrees) at 13 MPH (11 knots; 5.7 m/s)
Visibility: 4 miles ( 6 km)
Ceiling: 300 feet AGL
Clouds: overcast cloud deck at 300 feet AGL
Weather: no significant weather observed at this time

METAR text: EGPH 172220Z 07013KT 5000 BR OVC003 07/07 Q1026
Conditions at: EGPH (EDINBURGH AIRPOR, GB) observed 2220 UTC 17 April 2019
Temperature: 7.0°C (45°F)
Dewpoint: 7.0°C (45°F) [RH = 100%]
Pressure (altimeter): 30.30 inches Hg (1026.0 mb)
Winds: from the ENE (70 degrees) at 15 MPH (13 knots; 6.7 m/s)
Visibility: 3 miles ( 5 km)
Ceiling: 300 feet AGL
Clouds: overcast cloud deck at 300 feet AGL
Weather: BR  (mist)

METAR text: EGPH 172150Z 07011KT 5000 BR OVC003 07/07 Q1026
Conditions at: EGPH (EDINBURGH AIRPOR, GB) observed 2150 UTC 17 April 2019
Temperature: 7.0°C (45°F)
Dewpoint: 7.0°C (45°F) [RH = 100%]
Pressure (altimeter): 30.30 inches Hg (1026.0 mb)
Winds: from the ENE (70 degrees) at 13 MPH (11 knots; 5.7 m/s)
Visibility: 3 miles ( 5 km)
Ceiling: 300 feet AGL
Clouds: overcast cloud deck at 300 feet AGL
Weather: BR  (mist)

METAR text: EGPH 172120Z 06010KT 5000 BR BKN004 07/07 Q1026
Conditions at: EGPH (EDINBURGH AIRPOR, GB) observed 2120 UTC 17 April 2019
Temperature: 7.0°C (45°F)
Dewpoint: 7.0°C (45°F) [RH = 100%]
Pressure (altimeter): 30.30 inches Hg (1026.0 mb)
Winds: from the ENE (60 degrees) at 12 MPH (10 knots; 5.1 m/s)
Visibility: 3 miles ( 5 km)
Ceiling: 400 feet AGL
Clouds: broken clouds at 400 feet AGL
Weather: BR  (mist)

METAR text: EGPH 172050Z 05011KT 5000 BR BKN004 07/07 Q1025
Conditions at: EGPH (EDINBURGH AIRPOR, GB) observed 2050 UTC 17 April 2019
Temperature: 7.0°C (45°F)
Dewpoint: 7.0°C (45°F) [RH = 100%]
Pressure (altimeter): 30.27 inches Hg (1025.0 mb)
Winds: from the NE (50 degrees) at 13 MPH (11 knots; 5.7 m/s)
Visibility: 3 miles ( 5 km)
Ceiling: 400 feet AGL
Clouds: broken clouds at 400 feet AGL
Weather: BR  (mist)

Forecast for: EGPH (EDINBURGH AIRPOR, GB)
Text: TAF EGPH 190501Z 1906/2006 05010KT 6000 SCT004
Forecast period: 0600 to 0900 UTC 19 April 2019
Forecast type: FROM: standard forecast or significant change
Winds: from the NE (50 degrees) at 12 MPH (10 knots; 5.1 m/s)
Visibility: 4 miles (6 km)
Ceiling: at least 12,000 feet AGL
Clouds: scattered clouds at 400 feet AGL
Weather: no significant weather forecast for this period
Text: TEMPO 1906/1909 4000 BR BKN003
Forecast period: 0600 to 0900 UTC 19 April 2019
Forecast type: TEMPORARY: The following changes expected for less than half the time period
Visibility: 2.49 miles (4.01 km)
Ceiling: 300 feet AGL
Clouds: broken clouds at 300 feet AGL
Weather: BR  (mist)
Text: PROB40
Forecast period: 0600 to 0800 UTC 19 April 2019
Forecast type: TEMPORARY: The following changes expected for less than half the time period
Visibility: 0.31 miles (0.50 km)
Ceiling: unknown
Clouds: missing
Weather: FG  (fog)
Text: TEMPO 1906/1908 0500 FG VV///
Forecast period: 0900 to 1900 UTC 19 April 2019
Forecast type: BECOMING: Conditions expected to become as follows by 1200 UTC 19 April 2019
Winds: from the NE (50 degrees) at 12 MPH (10 knots; 5.1 m/s)
Visibility: 6 or more miles 10+ km)
Ceiling: at least 12,000 feet AGL
Clouds: scattered clouds at 400 feet AGL
Weather: no significant weather forecast for this period
Text: BECMG 1909/1912 9999
Forecast period: 1800 UTC 19 April 2019 to 0600 UTC 20 April 2019
Forecast type: TEMPORARY: The following changes expected for less than half the time period
Visibility: 4 miles (6 km)
Ceiling: unknown
Clouds: missing
Weather: no significant weather forecast for this period
Text: TEMPO 1918/2006 6000
Forecast period: 1900 UTC 19 April 2019 to 0600 UTC 20 April 2019
Forecast type: BECOMING: Conditions expected to become as follows by 2200 UTC 19 April 2019
Winds: from the S (180 degrees) at 6 MPH (5 knots; 2.6 m/s)
Visibility: 6 or more miles 10+ km)
Ceiling: at least 12,000 feet AGL
Clouds: scattered clouds at 400 feet AGL
Weather: no significant weather forecast for this period